createdAt,value
2023-09-10T00:01:03.639Z,22.59
2023-09-10T00:03:30.083Z,22.60
2023-09-10T00:05:56.519Z,22.56
2023-09-10T00:08:22.995Z,22.59
2023-09-10T00:10:49.637Z,22.59
2023-09-10T00:13:17.389Z,22.56
2023-09-10T00:15:43.846Z,22.59
2023-09-10T00:18:10.386Z,22.57
2023-09-10T00:20:36.785Z,22.58
2023-09-10T00:23:03.182Z,22.58
2023-09-10T00:25:30.008Z,22.57
2023-09-10T00:27:57.269Z,22.57
2023-09-10T00:30:24.971Z,22.58
2023-09-10T00:32:51.326Z,22.56
2023-09-10T00:35:17.738Z,22.57
2023-09-10T00:37:44.119Z,22.58
2023-09-10T00:40:10.934Z,22.56
2023-09-10T00:42:37.326Z,22.54
2023-09-10T00:45:04.056Z,22.56
2023-09-10T00:47:32.450Z,22.56
2023-09-10T00:49:59.439Z,22.51
2023-09-10T00:52:27.451Z,22.54
2023-09-10T00:54:53.903Z,22.55
2023-09-10T00:57:21.563Z,22.55
2023-09-10T00:59:48.351Z,22.54
2023-09-10T01:02:15.086Z,22.56
2023-09-10T01:04:42.974Z,22.55
2023-09-10T01:07:09.470Z,22.55
2023-09-10T01:09:35.754Z,22.54
2023-09-10T01:12:06.028Z,22.55
2023-09-10T01:14:35.196Z,22.56
2023-09-10T01:17:06.192Z,22.55
2023-09-10T01:19:44.838Z,22.54
2023-09-10T01:22:16.292Z,22.54
2023-09-10T01:24:48.872Z,22.50
2023-09-10T01:27:15.196Z,22.52
2023-09-10T01:29:41.629Z,22.52
2023-09-10T01:32:10.149Z,22.52
2023-09-10T01:34:39.061Z,22.51
2023-09-10T01:37:11.592Z,22.49
2023-09-10T01:39:39.153Z,22.51
2023-09-10T01:42:07.091Z,22.50
2023-09-10T01:44:33.644Z,22.51
2023-09-10T01:47:00.499Z,22.50
2023-09-10T01:49:27.331Z,22.51
2023-09-10T01:51:53.758Z,22.52
2023-09-10T01:54:20.085Z,22.49
2023-09-10T01:56:46.429Z,22.49
2023-09-10T01:59:14.104Z,22.51
2023-09-10T02:01:40.563Z,22.51
2023-09-10T02:04:07.049Z,22.50
2023-09-10T02:06:33.448Z,22.47
2023-09-10T02:08:59.896Z,22.50
2023-09-10T02:11:26.810Z,22.50
2023-09-10T02:13:53.157Z,22.49
2023-09-10T02:16:20.852Z,22.45
2023-09-10T02:18:47.148Z,22.45
2023-09-10T02:21:13.526Z,22.47
2023-09-10T02:23:42.629Z,22.48
2023-09-10T02:26:09.171Z,22.49
2023-09-10T02:28:35.601Z,22.49
2023-09-10T02:31:04.575Z,22.48
2023-09-10T02:33:32.272Z,22.48
2023-09-10T02:35:58.566Z,22.45
2023-09-10T02:38:24.941Z,22.48
2023-09-10T02:40:51.371Z,22.48
2023-09-10T02:43:17.709Z,22.46
2023-09-10T02:45:44.094Z,22.47
2023-09-10T02:48:10.407Z,22.46
2023-09-10T02:50:38.067Z,22.46
2023-09-10T02:53:04.654Z,22.47
2023-09-10T02:55:31.140Z,22.41
2023-09-10T02:57:57.459Z,22.43
2023-09-10T03:00:23.783Z,22.45
2023-09-10T03:02:51.941Z,22.45
2023-09-10T03:05:18.478Z,22.43
2023-09-10T03:07:46.364Z,22.45
2023-09-10T03:10:12.996Z,22.45
2023-09-10T03:12:39.282Z,22.44
2023-09-10T03:15:05.891Z,22.43
2023-09-10T03:17:32.241Z,22.42
2023-09-10T03:19:58.658Z,22.42
2023-09-10T03:22:25.060Z,22.39
2023-09-10T03:24:52.619Z,22.41
2023-09-10T03:27:19.077Z,22.42
2023-09-10T03:29:45.743Z,22.41
2023-09-10T03:32:12.261Z,22.41
2023-09-10T03:34:39.428Z,22.42
2023-09-10T03:37:05.868Z,22.42
2023-09-10T03:39:32.258Z,22.41
2023-09-10T03:41:59.925Z,22.41
2023-09-10T03:44:26.332Z,22.39
2023-09-10T03:46:52.800Z,22.38
2023-09-10T03:49:19.342Z,22.37
2023-09-10T03:51:45.734Z,22.40
2023-09-10T03:54:12.061Z,22.39
2023-09-10T03:56:38.393Z,22.38
2023-09-10T03:59:06.198Z,22.38
2023-09-10T04:01:32.524Z,22.39
2023-09-10T04:03:59.327Z,22.38
2023-09-10T04:06:25.699Z,22.39
2023-09-10T04:08:52.096Z,22.38
2023-09-10T04:11:18.447Z,22.38
2023-09-10T04:13:45.111Z,22.38
2023-09-10T04:16:12.831Z,22.37
2023-09-10T04:18:39.439Z,22.37
2023-09-10T04:21:06.016Z,22.37
2023-09-10T04:23:32.397Z,22.35
2023-09-10T04:25:58.951Z,22.36
2023-09-10T04:28:25.419Z,22.36
2023-09-10T04:30:51.898Z,22.37
2023-09-10T04:33:19.596Z,22.36
2023-09-10T04:35:48.215Z,22.35
2023-09-10T04:38:14.650Z,22.35
2023-09-10T04:40:41.294Z,22.33
2023-09-10T04:43:07.670Z,22.34
2023-09-10T04:45:34.095Z,22.35
2023-09-10T04:48:00.462Z,22.35
2023-09-10T04:50:28.080Z,22.35
2023-09-10T04:52:54.478Z,22.33
2023-09-10T04:55:20.792Z,22.32
2023-09-10T04:57:47.100Z,22.32
2023-09-10T05:00:13.760Z,22.31
2023-09-10T05:02:40.361Z,22.31
2023-09-10T05:05:07.186Z,22.31
2023-09-10T05:07:34.860Z,22.31
2023-09-10T05:10:01.163Z,22.28
2023-09-10T05:12:27.553Z,22.28
2023-09-10T05:14:53.947Z,22.28
2023-09-10T05:17:20.334Z,22.29
2023-09-10T05:19:46.738Z,22.30
2023-09-10T05:22:13.065Z,22.30
2023-09-10T05:24:40.755Z,22.31
2023-09-10T05:27:07.060Z,22.28
2023-09-10T05:29:33.316Z,22.28
2023-09-10T05:31:59.754Z,22.29
2023-09-10T05:34:26.273Z,22.29
2023-09-10T05:36:52.669Z,22.28
2023-09-10T05:39:18.995Z,22.28
2023-09-10T05:41:46.616Z,22.27
2023-09-10T05:44:13.119Z,22.30
2023-09-10T05:46:39.451Z,22.29
2023-09-10T05:49:05.775Z,22.29
2023-09-10T05:51:32.117Z,22.26
2023-09-10T05:53:58.442Z,22.26
2023-09-10T05:56:24.746Z,22.28
2023-09-10T05:58:52.425Z,22.26
2023-09-10T06:01:18.817Z,22.27
2023-09-10T06:03:45.317Z,22.28
2023-09-10T06:06:11.856Z,22.28
2023-09-10T06:08:38.446Z,22.29
2023-09-10T06:11:04.994Z,22.29
2023-09-10T06:13:31.309Z,22.27
2023-09-10T06:15:59.650Z,22.27
2023-09-10T06:18:26.003Z,22.27
2023-09-10T06:20:52.311Z,22.28
2023-09-10T06:23:18.711Z,22.28
2023-09-10T06:25:45.168Z,22.25
2023-09-10T06:28:11.495Z,22.25
2023-09-10T06:30:37.873Z,22.26
2023-09-10T06:33:05.838Z,22.26
2023-09-10T06:35:32.378Z,22.28
2023-09-10T06:37:58.878Z,22.28
2023-09-10T06:40:25.788Z,22.29
2023-09-10T06:42:52.959Z,22.30
2023-09-10T06:45:19.338Z,22.29
2023-09-10T06:47:45.747Z,22.27
2023-09-10T06:50:13.464Z,22.26
2023-09-10T06:52:39.824Z,22.27
2023-09-10T06:55:06.396Z,22.28
2023-09-10T06:57:32.715Z,22.27
2023-09-10T06:59:59.066Z,22.28
2023-09-10T07:02:25.448Z,22.29
2023-09-10T07:04:51.834Z,22.30
2023-09-10T07:07:19.631Z,22.29
2023-09-10T07:09:46.170Z,22.28
2023-09-10T07:12:12.564Z,22.30
2023-09-10T07:14:38.907Z,22.27
2023-09-10T07:17:05.944Z,22.29
2023-09-10T07:19:32.388Z,22.29
2023-09-10T07:21:58.673Z,22.29
2023-09-10T07:24:26.307Z,22.30
2023-09-10T07:26:52.593Z,22.32
2023-09-10T07:29:18.943Z,22.30
2023-09-10T07:31:45.506Z,22.31
2023-09-10T07:34:12.188Z,22.31
2023-09-10T07:36:38.493Z,22.31
2023-09-10T07:39:04.980Z,22.29
2023-09-10T07:41:32.823Z,22.30
2023-09-10T07:44:00.428Z,22.31
2023-09-10T07:46:26.832Z,22.31
2023-09-10T07:48:53.126Z,22.33
2023-09-10T07:51:19.558Z,22.32
2023-09-10T07:53:45.881Z,22.33
2023-09-10T07:56:12.239Z,22.32
2023-09-10T07:58:40.176Z,22.32
2023-09-10T08:01:06.683Z,22.33
2023-09-10T08:03:33.225Z,22.33
2023-09-10T08:05:59.727Z,22.33
2023-09-10T08:08:26.089Z,22.33
2023-09-10T08:10:52.605Z,22.34
2023-09-10T08:13:19.284Z,22.33
2023-09-10T08:15:47.090Z,22.34
2023-09-10T08:18:13.600Z,22.32
2023-09-10T08:20:40.377Z,22.32
2023-09-10T08:23:07.012Z,22.34
2023-09-10T08:25:33.397Z,22.34
2023-09-10T08:28:00.045Z,22.33
2023-09-10T08:30:26.482Z,22.34
2023-09-10T08:32:54.265Z,22.35
2023-09-10T08:35:21.317Z,22.35
2023-09-10T08:37:47.951Z,22.33
2023-09-10T08:40:14.815Z,22.31
2023-09-10T08:42:45.301Z,22.33
2023-09-10T08:45:12.473Z,22.33
2023-09-10T08:47:39.512Z,22.32
2023-09-10T08:50:08.829Z,22.31
2023-09-10T08:52:35.933Z,22.31
2023-09-10T08:55:02.436Z,22.35
2023-09-10T08:57:29.560Z,22.35
2023-09-10T08:59:56.375Z,22.37
2023-09-10T09:02:22.851Z,22.38
2023-09-10T09:04:49.373Z,22.38
2023-09-10T09:07:18.480Z,22.39
2023-09-10T09:09:47.552Z,22.40
2023-09-10T09:12:14.692Z,22.39
2023-09-10T09:14:41.821Z,22.39
2023-09-10T09:17:08.425Z,22.40
2023-09-10T09:19:37.229Z,22.37
2023-09-10T09:22:04.854Z,22.36
2023-09-10T09:24:34.109Z,22.36
2023-09-10T09:27:01.065Z,22.37
2023-09-10T09:29:28.428Z,22.36
2023-09-10T09:31:54.811Z,22.33
2023-09-10T09:34:21.182Z,22.33
2023-09-10T09:36:49.962Z,22.33
2023-09-10T09:39:16.578Z,22.36
2023-09-10T09:41:46.436Z,22.41
2023-09-10T09:44:12.825Z,22.43
2023-09-10T09:46:42.393Z,22.43
2023-09-10T09:49:08.976Z,22.43
2023-09-10T09:51:35.262Z,22.44
2023-09-10T09:54:01.621Z,22.42
2023-09-10T09:56:28.074Z,22.44
2023-09-10T09:58:58.760Z,22.45
2023-09-10T10:01:25.481Z,22.41
2023-09-10T10:03:52.000Z,22.40
2023-09-10T10:06:18.868Z,22.41
2023-09-10T10:08:48.169Z,22.41
2023-09-10T10:11:14.533Z,22.42
2023-09-10T10:13:41.043Z,22.39
2023-09-10T10:16:09.099Z,22.39
2023-09-10T10:18:35.605Z,22.41
2023-09-10T10:21:02.981Z,22.42
2023-09-10T10:23:29.400Z,22.39
2023-09-10T10:25:56.827Z,22.41
2023-09-10T10:28:23.366Z,22.45
2023-09-10T10:30:51.012Z,22.43
2023-09-10T10:33:21.293Z,22.45
2023-09-10T10:35:52.480Z,22.44
2023-09-10T10:38:20.096Z,22.46
2023-09-10T10:40:50.951Z,22.42
2023-09-10T10:43:18.817Z,22.41
2023-09-10T10:45:46.209Z,22.43
2023-09-10T10:48:13.723Z,22.42
2023-09-10T10:50:43.410Z,22.37
2023-09-10T10:53:12.298Z,22.34
2023-09-10T10:55:39.263Z,22.33
2023-09-10T10:58:05.772Z,22.37
2023-09-10T11:00:32.628Z,22.37
2023-09-10T11:03:08.816Z,22.36
2023-09-10T11:05:42.303Z,22.36
2023-09-10T11:08:08.566Z,22.36
2023-09-10T11:10:42.072Z,22.41
2023-09-10T11:13:10.954Z,22.43
2023-09-10T11:15:57.299Z,22.44
2023-09-10T11:18:33.575Z,22.47
2023-09-10T11:20:59.992Z,22.50
2023-09-10T11:23:26.546Z,22.51
2023-09-10T11:25:52.958Z,22.52
2023-09-10T11:28:29.218Z,22.51
2023-09-10T11:30:56.926Z,22.49
2023-09-10T11:33:31.095Z,22.44
2023-09-10T11:35:57.966Z,22.42
2023-09-10T11:38:25.643Z,22.39
2023-09-10T11:40:52.104Z,22.40
2023-09-10T11:43:18.584Z,22.43
2023-09-10T11:45:44.878Z,22.41
2023-09-10T11:48:12.687Z,22.41
2023-09-10T11:50:39.059Z,22.40
2023-09-10T11:53:05.472Z,22.39
2023-09-10T11:55:32.023Z,22.41
2023-09-10T11:57:59.170Z,22.42
2023-09-10T12:00:25.517Z,22.47
2023-09-10T12:02:52.112Z,22.46
2023-09-10T12:05:19.838Z,22.46
2023-09-10T12:07:46.332Z,22.46
2023-09-10T12:10:12.643Z,22.48
2023-09-10T12:12:40.107Z,22.50
2023-09-10T12:15:07.387Z,22.50
2023-09-10T12:17:33.935Z,22.46
2023-09-10T12:20:00.797Z,22.45
2023-09-10T12:22:28.467Z,22.44
2023-09-10T12:24:54.822Z,22.43
2023-09-10T12:27:21.236Z,22.44
2023-09-10T12:29:47.584Z,22.43
2023-09-10T12:32:13.962Z,22.42
2023-09-10T12:34:40.455Z,22.40
2023-09-10T12:37:06.792Z,22.38
2023-09-10T12:39:35.571Z,22.43
2023-09-10T12:42:02.041Z,22.46
2023-09-10T12:44:28.729Z,22.47
2023-09-10T12:46:55.313Z,22.48
2023-09-10T12:49:21.834Z,22.49
2023-09-10T12:51:48.483Z,22.50
2023-09-10T12:54:15.391Z,22.50
2023-09-10T12:56:43.049Z,22.50
2023-09-10T12:59:09.715Z,22.53
2023-09-10T13:01:38.533Z,22.49
2023-09-10T13:04:05.106Z,22.41
2023-09-10T13:06:31.455Z,22.41
2023-09-10T13:09:01.216Z,22.41
2023-09-10T13:11:27.620Z,22.41
2023-09-10T13:13:55.301Z,22.43
2023-09-10T13:16:21.661Z,22.40
2023-09-10T13:18:48.217Z,22.40
2023-09-10T13:21:14.601Z,22.41
2023-09-10T13:23:41.163Z,22.45
2023-09-10T13:26:07.759Z,22.49
2023-09-10T13:28:34.103Z,22.50
2023-09-10T13:31:01.976Z,22.50
2023-09-10T13:33:28.301Z,22.50
2023-09-10T13:35:54.594Z,22.48
2023-09-10T13:38:20.970Z,22.50
2023-09-10T13:40:47.369Z,22.51
2023-09-10T13:43:13.740Z,22.53
2023-09-10T13:45:40.042Z,22.52
2023-09-10T13:48:07.819Z,22.49
2023-09-10T13:50:34.293Z,22.49
2023-09-10T13:53:00.817Z,22.46
2023-09-10T13:55:27.165Z,22.46
2023-09-10T13:57:53.500Z,22.43
2023-09-10T14:00:19.796Z,22.42
2023-09-10T14:02:46.336Z,22.39
2023-09-10T14:05:14.127Z,22.41
2023-09-10T14:07:40.565Z,22.42
2023-09-10T14:10:07.227Z,22.44
2023-09-10T14:12:33.678Z,22.43
2023-09-10T14:15:00.066Z,22.43
2023-09-10T14:17:26.487Z,22.48
2023-09-10T14:19:52.851Z,22.48
2023-09-10T14:22:20.592Z,22.47
2023-09-10T14:24:46.906Z,22.52
2023-09-10T14:27:13.231Z,22.51
2023-09-10T14:29:39.602Z,22.46
2023-09-10T14:32:06.207Z,22.44
2023-09-10T14:34:32.731Z,22.41
2023-09-10T14:37:00.951Z,22.38
2023-09-10T14:39:28.549Z,22.42
2023-09-10T14:41:54.842Z,22.47
2023-09-10T14:44:21.291Z,22.48
2023-09-10T14:46:47.633Z,22.49
2023-09-10T14:49:13.971Z,22.46
2023-09-10T14:51:40.281Z,22.44
2023-09-10T14:54:06.936Z,22.44
2023-09-10T14:56:34.569Z,22.48
2023-09-10T14:59:01.053Z,22.51
2023-09-10T15:01:27.412Z,22.57
2023-09-10T15:03:53.851Z,22.58
2023-09-10T15:06:20.363Z,22.56
2023-09-10T15:08:46.665Z,22.55
2023-09-10T15:11:13.011Z,22.53
2023-09-10T15:13:41.006Z,22.58
2023-09-10T15:16:07.591Z,22.57
2023-09-10T15:18:33.984Z,22.54
2023-09-10T15:21:00.347Z,22.49
2023-09-10T15:23:26.719Z,22.45
2023-09-10T15:25:53.145Z,22.43
2023-09-10T15:28:20.021Z,22.47
2023-09-10T15:30:47.795Z,22.46
2023-09-10T15:33:14.154Z,22.49
2023-09-10T15:35:40.578Z,22.48
2023-09-10T15:38:07.043Z,22.46
2023-09-10T15:40:33.390Z,22.43
2023-09-10T15:42:59.706Z,22.44
2023-09-10T15:45:26.049Z,22.44
2023-09-10T15:47:53.677Z,22.46
2023-09-10T15:50:20.035Z,22.51
2023-09-10T15:52:46.513Z,22.50
2023-09-10T15:55:12.847Z,22.52
2023-09-10T15:57:39.227Z,22.53
2023-09-10T16:00:06.120Z,22.53
2023-09-10T16:02:32.437Z,22.54
2023-09-10T16:05:00.180Z,22.55
2023-09-10T16:07:26.529Z,22.52
2023-09-10T16:09:53.077Z,22.51
2023-09-10T16:12:19.573Z,22.52
2023-09-10T16:14:45.853Z,22.50
2023-09-10T16:17:12.263Z,22.51
2023-09-10T16:19:38.606Z,22.54
2023-09-10T16:22:08.194Z,22.53
2023-09-10T16:24:35.021Z,22.57
2023-09-10T16:27:01.336Z,22.57
2023-09-10T16:29:27.781Z,22.57
2023-09-10T16:31:54.315Z,22.56
2023-09-10T16:34:20.635Z,22.54
2023-09-10T16:36:46.938Z,22.56
2023-09-10T16:39:14.553Z,22.57
2023-09-10T16:41:40.995Z,22.60
2023-09-10T16:44:07.453Z,22.61
2023-09-10T16:46:33.778Z,22.61
2023-09-10T16:49:00.287Z,22.63
2023-09-10T16:51:26.601Z,22.64
2023-09-10T16:53:53.019Z,22.61
2023-09-10T16:56:20.740Z,22.61
2023-09-10T16:58:47.098Z,22.57
2023-09-10T17:01:16.798Z,22.58
2023-09-10T17:03:43.450Z,22.57
2023-09-10T17:06:10.052Z,22.55
2023-09-10T17:08:36.414Z,22.56
2023-09-10T17:11:02.837Z,22.55
2023-09-10T17:13:30.639Z,22.54
2023-09-10T17:16:00.596Z,22.53
2023-09-10T17:18:26.990Z,22.56
2023-09-10T17:20:53.393Z,22.58
2023-09-10T17:23:19.726Z,22.59
2023-09-10T17:25:46.049Z,22.60
2023-09-10T17:28:12.383Z,22.62
2023-09-10T17:30:40.088Z,22.63
2023-09-10T17:33:06.535Z,22.65
2023-09-10T17:35:32.963Z,22.63
2023-09-10T17:37:59.250Z,22.63
2023-09-10T17:40:25.569Z,22.61
2023-09-10T17:42:51.911Z,22.59
2023-09-10T17:45:18.339Z,22.60
2023-09-10T17:47:46.138Z,22.60
2023-09-10T17:50:12.570Z,22.57
2023-09-10T17:52:38.864Z,22.54
2023-09-10T17:55:06.527Z,22.54
2023-09-10T17:57:33.280Z,22.56
2023-09-10T17:59:59.701Z,22.57
2023-09-10T18:02:26.044Z,22.60
2023-09-10T18:04:53.850Z,22.61
2023-09-10T18:07:20.215Z,22.61
2023-09-10T18:09:46.540Z,22.64
2023-09-10T18:12:12.893Z,22.63
2023-09-10T18:14:39.264Z,22.63
2023-09-10T18:17:05.892Z,22.63
2023-09-10T18:19:32.402Z,22.60
2023-09-10T18:21:59.998Z,22.58
2023-09-10T18:24:26.275Z,22.57
2023-09-10T18:26:52.764Z,22.56
2023-09-10T18:29:19.212Z,22.58
2023-09-10T18:31:45.668Z,22.57
2023-09-10T18:34:12.065Z,22.57
2023-09-10T18:36:38.499Z,22.57
2023-09-10T18:39:06.217Z,22.61
2023-09-10T18:41:32.568Z,22.63
2023-09-10T18:43:58.880Z,22.65
2023-09-10T18:46:25.900Z,22.67
2023-09-10T18:48:52.266Z,22.69
2023-09-10T18:51:18.577Z,22.70
2023-09-10T18:53:45.057Z,22.71
2023-09-10T18:56:12.797Z,22.74
2023-09-10T18:58:39.105Z,22.72
2023-09-10T19:01:05.480Z,22.71
2023-09-10T19:03:32.189Z,22.67
2023-09-10T19:05:59.021Z,22.65
2023-09-10T19:08:25.472Z,22.66
2023-09-10T19:10:51.986Z,22.63
2023-09-10T19:13:19.677Z,22.63
2023-09-10T19:15:47.372Z,22.62
2023-09-10T19:18:15.615Z,22.65
2023-09-10T19:20:42.481Z,22.73
2023-09-10T19:23:08.804Z,22.78
2023-09-10T19:25:35.246Z,22.80
2023-09-10T19:28:02.033Z,22.77
2023-09-10T19:30:29.704Z,22.75
2023-09-10T19:32:56.207Z,22.81
2023-09-10T19:35:22.801Z,22.82
2023-09-10T19:37:49.329Z,22.83
2023-09-10T19:40:15.968Z,22.81
2023-09-10T19:42:42.268Z,22.78
2023-09-10T19:45:08.730Z,22.74
2023-09-10T19:47:36.435Z,22.72
2023-09-10T19:50:02.796Z,22.72
2023-09-10T19:52:29.605Z,22.71
2023-09-10T19:55:07.410Z,22.73
2023-09-10T19:57:36.029Z,22.74
2023-09-10T20:00:02.365Z,22.74
2023-09-10T20:02:28.742Z,22.72
2023-09-10T20:04:56.450Z,22.72
2023-09-10T20:07:22.884Z,22.72
2023-09-10T20:09:49.225Z,22.75
2023-09-10T20:12:15.653Z,22.74
2023-09-10T20:14:42.008Z,22.74
2023-09-10T20:17:08.485Z,22.72
2023-09-10T20:19:34.872Z,22.72
2023-09-10T20:22:02.611Z,22.73
2023-09-10T20:24:29.156Z,22.72
2023-09-10T20:26:55.512Z,22.71
2023-09-10T20:29:21.913Z,22.69
2023-09-10T20:31:48.197Z,22.70
2023-09-10T20:34:14.496Z,22.70
2023-09-10T20:36:40.832Z,22.69
2023-09-10T20:39:08.472Z,22.69
2023-09-10T20:41:35.054Z,22.66
2023-09-10T20:44:01.442Z,22.67
2023-09-10T20:46:27.819Z,22.67
2023-09-10T20:48:54.115Z,22.68
2023-09-10T20:51:28.574Z,22.68
2023-09-10T20:53:54.947Z,22.67
2023-09-10T20:56:22.665Z,22.66
2023-09-10T20:58:49.136Z,22.67
2023-09-10T21:01:15.518Z,22.66
2023-09-10T21:03:42.208Z,22.65
2023-09-10T21:06:09.653Z,22.63
2023-09-10T21:08:36.046Z,22.65
2023-09-10T21:11:04.132Z,22.62
2023-09-10T21:13:31.742Z,22.61
2023-09-10T21:15:58.155Z,22.61
2023-09-10T21:18:24.626Z,22.59
2023-09-10T21:20:51.050Z,22.60
2023-09-10T21:23:17.435Z,22.60
2023-09-10T21:25:43.808Z,22.59
2023-09-10T21:28:10.346Z,22.58
2023-09-10T21:30:38.045Z,22.61
2023-09-10T21:33:04.822Z,22.61
2023-09-10T21:35:31.271Z,22.61
2023-09-10T21:37:57.634Z,22.58
2023-09-10T21:40:23.929Z,22.58
2023-09-10T21:42:50.248Z,22.59
2023-09-10T21:45:16.621Z,22.60
2023-09-10T21:47:44.514Z,22.59
2023-09-10T21:50:11.022Z,22.58
2023-09-10T21:52:37.353Z,22.54
2023-09-10T21:55:03.881Z,22.56
2023-09-10T21:57:30.194Z,22.55
2023-09-10T21:59:56.667Z,22.54
2023-09-10T22:02:23.098Z,22.54
2023-09-10T22:04:50.745Z,22.53
2023-09-10T22:07:17.343Z,22.52
2023-09-10T22:09:43.675Z,22.52
2023-09-10T22:12:09.990Z,22.54
2023-09-10T22:14:36.349Z,22.54
2023-09-10T22:17:02.701Z,22.55
2023-09-10T22:19:29.158Z,22.54
2023-09-10T22:21:56.814Z,22.55
2023-09-10T22:24:23.143Z,22.54
2023-09-10T22:26:49.575Z,22.51
2023-09-10T22:29:15.975Z,22.54
2023-09-10T22:31:42.469Z,22.54
2023-09-10T22:34:08.813Z,22.52
2023-09-10T22:36:38.862Z,22.52
2023-09-10T22:39:07.244Z,22.51
2023-09-10T22:41:33.646Z,22.50
2023-09-10T22:44:00.057Z,22.47
2023-09-10T22:46:26.454Z,22.48
2023-09-10T22:48:52.704Z,22.49
2023-09-10T22:51:19.126Z,22.51
2023-09-10T22:53:45.505Z,22.49
2023-09-10T22:56:13.109Z,22.50
2023-09-10T22:58:39.697Z,22.49
2023-09-10T23:01:06.216Z,22.49
2023-09-10T23:03:32.847Z,22.49
2023-09-10T23:05:59.250Z,22.46
2023-09-10T23:08:25.606Z,22.48
2023-09-10T23:10:52.059Z,22.47
2023-09-10T23:13:19.696Z,22.47
2023-09-10T23:15:46.048Z,22.47
2023-09-10T23:18:12.540Z,22.45
2023-09-10T23:20:38.958Z,22.45
2023-09-10T23:23:05.440Z,22.45
2023-09-10T23:25:31.740Z,22.43
2023-09-10T23:27:58.085Z,22.42
2023-09-10T23:30:25.770Z,22.44
2023-09-10T23:32:52.156Z,22.44
2023-09-10T23:35:18.633Z,22.41
2023-09-10T23:37:45.689Z,22.42
2023-09-10T23:40:12.092Z,22.42
2023-09-10T23:42:38.363Z,22.42
2023-09-10T23:45:05.000Z,22.43
2023-09-10T23:47:32.776Z,22.39
2023-09-10T23:49:59.135Z,22.38
2023-09-10T23:52:25.465Z,22.38
2023-09-10T23:54:51.854Z,22.37
2023-09-10T23:57:18.139Z,22.38
2023-09-10T23:59:44.519Z,22.38
